Time;durP1;ratioP1;P1;durP2;ratioP2;P2;SDS_P1;SDS_P2;PMS_P1;PMS_P2;Temp;Humidity;BMP_temperature;BMP_pressure;BME280_temperature;BME280_humidity;BME280_pressure;Samples;Min_cycle;Max_cycle;Signal;HPM_P1;HPM_P2
2023/06/15 05:48:14;;;;;;;1999.90;999.90;;;18.70;99.90;;;;;;5470225;23;20536;-77
2023/06/15 05:50:40;;;;;;;1999.90;999.90;;;18.70;99.90;;;;;;4974665;28;20035;-78
2023/06/15 05:53:05;;;;;;;1999.90;999.90;;;18.70;99.90;;;;;;4959812;28;20031;-74
2023/06/15 05:55:31;;;;;;;1999.90;999.90;;;18.80;99.90;;;;;;4955798;29;20627;-73
2023/06/15 05:57:57;;;;;;;1999.90;999.90;;;18.90;99.90;;;;;;4956238;28;20023;-73
2023/06/15 06:00:25;;;;;;;1999.90;999.90;;;19.00;99.90;;;;;;4953922;28;20038;-73
2023/06/15 06:02:52;;;;;;;1999.90;999.90;;;18.90;99.90;;;;;;4963201;28;20035;-81
2023/06/15 06:05:18;;;;;;;1999.90;999.90;;;19.10;99.90;;;;;;4936787;28;20035;-73
2023/06/15 06:07:46;;;;;;;1999.90;999.90;;;19.10;99.90;;;;;;4934995;28;20679;-74
2023/06/15 06:10:12;;;;;;;1999.90;999.90;;;19.20;99.90;;;;;;4954574;28;20031;-73
2023/06/15 06:12:38;;;;;;;1999.90;999.90;;;19.40;99.90;;;;;;4954077;28;20162;-74
2023/06/15 06:15:04;;;;;;;1999.90;999.90;;;19.40;99.90;;;;;;4966923;28;20370;-73
2023/06/15 06:17:30;;;;;;;1999.90;999.90;;;19.40;99.90;;;;;;4968286;28;20030;-78
2023/06/15 06:19:56;;;;;;;1999.90;999.90;;;19.30;99.90;;;;;;4938903;28;20023;-73
2023/06/15 06:22:22;;;;;;;1999.90;999.90;;;19.30;99.90;;;;;;4936557;29;20070;-73
2023/06/15 06:24:47;;;;;;;1999.90;999.90;;;19.30;99.90;;;;;;4961374;28;20374;-74
2023/06/15 06:27:13;;;;;;;1999.90;999.90;;;19.30;99.90;;;;;;4962665;28;20041;-74
2023/06/15 06:29:40;;;;;;;1999.90;999.90;;;19.40;99.90;;;;;;4969004;28;20031;-81
2023/06/15 06:32:07;;;;;;;1999.90;999.90;;;19.40;99.90;;;;;;4961598;28;20027;-74
2023/06/15 06:34:35;;;;;;;1999.90;999.90;;;19.40;99.90;;;;;;4944212;28;20494;-74
2023/06/15 06:37:02;;;;;;;1999.90;999.90;;;19.50;99.90;;;;;;4964243;28;20019;-74
2023/06/15 06:39:28;;;;;;;1999.90;999.90;;;19.40;99.90;;;;;;4960037;28;20122;-74
2023/06/15 06:41:53;;;;;;;1999.90;999.90;;;19.40;99.90;;;;;;4969420;28;20493;-81
2023/06/15 06:44:19;;;;;;;1999.90;999.90;;;19.40;99.90;;;;;;4955324;28;20035;-81
2023/06/15 06:46:45;;;;;;;1999.90;999.90;;;19.50;99.90;;;;;;4954312;28;20430;-74
2023/06/15 06:49:11;;;;;;;1999.90;999.90;;;19.50;99.90;;;;;;4935901;29;20139;-73
2023/06/15 06:51:37;;;;;;;1999.90;999.90;;;19.60;99.90;;;;;;4958516;28;20102;-74
2023/06/15 06:54:03;;;;;;;1999.90;999.90;;;19.70;99.90;;;;;;4937393;29;20035;-79
2023/06/15 06:56:28;;;;;;;1999.90;999.90;;;19.70;99.90;;;;;;4969360;28;20046;-73
2023/06/15 06:58:54;;;;;;;1999.90;999.90;;;19.80;99.90;;;;;;4960982;28;20066;-73
2023/06/15 07:01:20;;;;;;;1999.90;999.90;;;19.90;99.90;;;;;;4952864;28;20510;-74
2023/06/15 07:03:46;;;;;;;1999.90;999.90;;;20.10;99.90;;;;;;4952953;28;20070;-74
2023/06/15 07:06:11;;;;;;;1999.90;999.90;;;20.10;99.90;;;;;;4953310;28;20500;-73
2023/06/15 07:08:37;;;;;;;1999.90;999.90;;;20.20;99.90;;;;;;4940595;28;20510;-80
2023/06/15 07:11:03;;;;;;;1999.90;999.90;;;20.10;99.90;;;;;;4958150;28;20067;-80
2023/06/15 07:13:28;;;;;;;1999.90;999.90;;;20.00;99.90;;;;;;4955738;28;20041;-74
2023/06/15 07:15:56;;;;;;;1999.90;999.90;;;19.90;99.90;;;;;;4951663;28;20043;-74
2023/06/15 07:18:22;;;;;;;1999.90;999.90;;;20.10;99.90;;;;;;4934212;28;20031;-73
2023/06/15 07:20:53;;;;;;;1999.90;999.90;;;20.20;99.90;;;;;;4958556;28;20912;-74
2023/06/15 07:23:22;;;;;;;1999.90;999.90;;;20.30;99.90;;;;;;4951948;28;20517;-80
2023/06/15 07:25:52;;;;;;;1999.90;999.90;;;20.00;99.90;;;;;;4938384;28;20061;-73
2023/06/15 07:28:18;;;;;;;1999.90;999.90;;;20.10;99.90;;;;;;4950997;28;20039;-73
2023/06/15 07:30:46;;;;;;;1999.90;999.90;;;20.50;99.90;;;;;;4934270;28;20035;-74
2023/06/15 07:33:12;;;;;;;1999.90;999.90;;;20.50;99.90;;;;;;4944892;28;20075;-79
2023/06/15 07:35:38;;;;;;;1999.90;999.90;;;20.70;99.90;;;;;;4935769;28;20838;-82
2023/06/15 07:38:04;;;;;;;1999.90;999.90;;;20.50;99.90;;;;;;4934095;28;20034;-73
2023/06/15 07:40:29;;;;;;;1999.90;999.90;;;20.60;99.90;;;;;;4951461;28;20074;-74
2023/06/15 07:42:55;;;;;;;1999.90;999.90;;;21.00;99.90;;;;;;4945702;28;20158;-73
2023/06/15 07:45:21;;;;;;;1999.90;999.90;;;20.90;99.90;;;;;;4949892;28;20031;-73
2023/06/15 07:47:46;;;;;;;1999.90;999.90;;;20.80;99.90;;;;;;4931750;29;20063;-81
2023/06/15 07:50:12;;;;;;;1999.90;999.90;;;21.30;99.90;;;;;;4943495;29;20024;-74
2023/06/15 07:52:38;;;;;;;1999.90;999.90;;;21.10;99.90;;;;;;4934795;29;20510;-72
2023/06/15 07:55:04;;;;;;;1999.90;999.90;;;21.00;99.90;;;;;;4949514;29;20094;-73
2023/06/15 07:57:30;;;;;;;1999.90;999.90;;;20.60;99.90;;;;;;4943618;29;20036;-74
2023/06/15 08:00:00;;;;;;;1999.90;999.90;;;20.60;99.90;;;;;;4938500;29;20411;-82
2023/06/15 08:02:26;;;;;;;1999.90;999.90;;;20.80;99.90;;;;;;4940722;28;20041;-75
2023/06/15 08:04:52;;;;;;;1999.90;999.90;;;21.00;99.90;;;;;;4947927;28;20061;-74
2023/06/15 08:07:18;;;;;;;1999.90;999.90;;;20.90;99.90;;;;;;4936280;29;20398;-72
2023/06/15 08:09:43;;;;;;;1999.90;999.90;;;21.00;99.90;;;;;;4935230;29;20521;-74
2023/06/15 08:12:10;;;;;;;1999.90;999.90;;;21.00;99.90;;;;;;4937216;29;20075;-81
2023/06/15 08:14:36;;;;;;;1999.90;999.90;;;21.20;99.90;;;;;;4934999;29;20036;-81
2023/06/15 08:17:02;;;;;;;1999.90;999.90;;;21.30;99.90;;;;;;4931890;29;20030;-74
2023/06/15 08:19:27;;;;;;;1999.90;999.90;;;21.20;99.90;;;;;;4937387;29;20089;-73
2023/06/15 08:21:53;;;;;;;1999.90;999.90;;;21.00;99.90;;;;;;4940254;29;20550;-73
2023/06/15 08:24:19;;;;;;;1999.90;999.90;;;21.40;99.90;;;;;;4939547;29;20023;-73
2023/06/15 08:26:44;;;;;;;1999.90;999.90;;;21.90;99.90;;;;;;4936231;29;20052;-81
2023/06/15 08:29:10;;;;;;;1999.90;999.90;;;21.60;99.90;;;;;;4936820;29;20035;-79
2023/06/15 08:31:38;;;;;;;1999.90;999.90;;;21.50;99.90;;;;;;4934682;29;20092;-74
2023/06/15 08:34:03;;;;;;;1999.90;999.90;;;22.10;99.90;;;;;;4935074;29;20533;-74
2023/06/15 08:36:29;;;;;;;1999.90;999.90;;;22.30;99.90;;;;;;4934743;29;20059;-74
2023/06/15 08:38:55;;;;;;;1999.90;999.90;;;22.20;99.90;;;;;;4932527;29;20047;-74
2023/06/15 08:41:25;;;;;;;1999.90;999.90;;;22.70;99.90;;;;;;4946224;29;20034;-74
2023/06/15 08:43:52;;;;;;;1999.90;999.90;;;22.60;99.90;;;;;;4945870;28;20023;-74
2023/06/15 08:46:18;;;;;;;1999.90;999.90;;;22.50;99.90;;;;;;4933158;28;20054;-74
2023/06/15 08:48:46;;;;;;;1999.90;999.90;;;22.30;99.90;;;;;;4950327;28;20043;-75
2023/06/15 08:51:12;;;;;;;1999.90;999.90;;;22.60;99.90;;;;;;4954954;28;20434;-74
2023/06/15 08:53:42;;;;;;;1999.90;999.90;;;22.20;99.90;;;;;;4936704;28;20082;-81
2023/06/15 08:56:13;;;;;;;1999.90;999.90;;;22.30;99.90;;;;;;4959286;28;20326;-73
2023/06/15 08:58:49;;;;;;;1999.90;999.90;;;22.30;99.90;;;;;;4953348;28;20020;-74
2023/06/15 09:01:23;;;;;;;1999.90;999.90;;;22.70;99.90;;;;;;4955280;28;20019;-74
2023/06/15 09:03:55;;;;;;;1999.90;999.90;;;23.10;99.90;;;;;;4957645;28;20034;-73
2023/06/15 09:06:22;;;;;;;1999.90;999.90;;;23.00;99.90;;;;;;4957562;28;20051;-81
2023/06/15 09:08:49;;;;;;;1999.90;999.90;;;23.10;99.90;;;;;;4951899;28;20525;-74
2023/06/15 09:11:16;;;;;;;1999.90;999.90;;;24.30;99.90;;;;;;4959510;28;20026;-74
2023/06/15 09:13:41;;;;;;;1999.90;999.90;;;25.80;99.90;;;;;;4959039;28;20036;-74
2023/06/15 09:16:08;;;;;;;1999.90;999.90;;;25.60;99.90;;;;;;4954899;28;20097;-74
2023/06/15 09:18:47;;;;;;;1999.90;999.90;;;24.70;99.90;;;;;;4955042;28;20110;-80
2023/06/15 09:21:15;;;;;;;1999.90;999.90;;;24.50;99.90;;;;;;4937640;29;20037;-74
2023/06/15 09:23:46;;;;;;;1999.90;999.90;;;24.50;99.90;;;;;;4937286;28;20023;-74
2023/06/15 09:26:28;;;;;;;1999.90;999.90;;;25.40;99.90;;;;;;4937445;28;20030;-74
2023/06/15 09:28:58;;;;;;;1999.90;999.90;;;24.10;99.90;;;;;;4935760;28;20031;-73
2023/06/15 09:31:42;;;;;;;1999.90;999.90;;;23.90;99.90;;;;;;4952494;28;20039;-73
2023/06/15 09:34:12;;;;;;;1999.90;999.90;;;25.40;99.90;;;;;;4954650;28;20039;-74
2023/06/15 09:36:44;;;;;;;1999.90;999.90;;;27.50;99.90;;;;;;4957681;28;20030;-74
2023/06/15 09:39:11;;;;;;;1999.90;999.90;;;26.50;99.90;;;;;;4951807;28;20055;-77
2023/06/15 09:42:00;;;;;;;1999.90;999.90;;;26.20;99.90;;;;;;4954359;28;20529;-74
2023/06/15 09:44:26;;;;;;;1999.90;999.90;;;25.40;99.90;;;;;;4952823;28;20402;-74
2023/06/15 09:46:57;;;;;;;1999.90;999.90;;;25.80;99.90;;;;;;4953611;28;20039;-80
2023/06/15 09:49:27;;;;;;;1999.90;999.90;;;25.40;99.90;;;;;;4931525;29;20490;-74
2023/06/15 09:51:54;;;;;;;1999.90;999.90;;;25.90;99.90;;;;;;4933420;29;20061;-74
2023/06/15 09:54:23;;;;;;;1999.90;999.90;;;27.00;99.90;;;;;;4933980;29;20032;-74
2023/06/15 09:56:53;;;;;;;1999.90;999.90;;;26.50;99.90;;;;;;4933502;29;20031;-73
2023/06/15 09:59:20;;;;;;;1999.90;999.90;;;26.00;99.90;;;;;;4934348;28;20055;-80
2023/06/15 10:01:49;;;;;;;1999.90;999.90;;;25.10;99.90;;;;;;4933178;29;20086;-73
2023/06/15 10:04:18;;;;;;;1999.90;999.90;;;24.90;99.90;;;;;;4931722;29;20035;-73
2023/06/15 10:06:47;;;;;;;1999.90;999.90;;;24.80;99.90;;;;;;4931446;29;20687;-73
2023/06/15 10:09:18;;;;;;;1999.90;999.90;;;24.60;99.90;;;;;;4931725;29;20491;-74
2023/06/15 10:11:47;;;;;;;1999.90;999.90;;;23.40;99.90;;;;;;4936171;29;20050;-79
2023/06/15 10:14:28;;;;;;;1999.90;999.90;;;25.00;99.90;;;;;;4931946;29;20032;-74
2023/06/15 10:17:06;;;;;;;1999.90;999.90;;;24.30;99.90;;;;;;4928199;29;20039;-74
2023/06/15 10:19:38;;;;;;;1999.90;999.90;;;25.10;99.90;;;;;;4925023;29;20035;-74
2023/06/15 10:22:06;;;;;;;;;;;24.90;99.90;;;;;;4933959;28;20103;-74
2023/06/15 10:24:33;;;;;;;1999.90;999.90;;;24.60;99.90;;;;;;4932256;29;20014;-77
2023/06/15 10:26:59;;;;;;;1999.90;999.90;;;24.00;99.90;;;;;;4934395;28;20028;-73
2023/06/15 10:29:25;;;;;;;1999.90;999.90;;;23.90;99.90;;;;;;4930493;29;20038;-74
2023/06/15 10:32:16;;;;;;;1999.90;999.90;;;24.20;99.90;;;;;;4930791;29;20020;-74
2023/06/15 10:34:57;;;;;;;1999.90;999.90;;;24.20;99.90;;;;;;4930120;29;20505;-74
2023/06/15 10:37:28;;;;;;;1999.90;999.90;;;24.50;99.90;;;;;;4926906;29;20106;-79
2023/06/15 10:40:00;;;;;;;1999.90;999.90;;;26.00;99.90;;;;;;4937219;29;20553;-76
2023/06/15 10:42:27;;;;;;;1999.90;999.90;;;25.50;99.90;;;;;;4924577;29;20250;-74
2023/06/15 10:44:52;;;;;;;1999.90;999.90;;;24.70;99.90;;;;;;4925981;29;20135;-75
2023/06/15 10:47:21;;;;;;;1999.90;999.90;;;24.50;99.90;;;;;;4930930;29;20582;-73
2023/06/15 10:49:51;;;;;;;1999.90;999.90;;;24.30;99.90;;;;;;4945118;28;20068;-74
2023/06/15 10:52:17;;;;;;;1999.90;999.90;;;25.20;99.90;;;;;;4953651;28;20035;-74
2023/06/15 10:54:43;;;;;;;1999.90;999.90;;;25.10;99.90;;;;;;4948426;28;20020;-73
2023/06/15 10:57:09;;;;;;;1999.90;999.90;;;24.40;99.90;;;;;;4953591;28;20031;-73
2023/06/15 10:59:56;;;;;;;1999.90;999.90;;;24.00;99.90;;;;;;4950685;28;20091;-73
2023/06/15 11:02:28;;;;;;;1999.90;999.90;;;24.00;99.90;;;;;;4932100;28;20037;-79
2023/06/15 11:05:00;;;;;;;1999.90;999.90;;;23.70;99.90;;;;;;4933842;28;20027;-75
2023/06/15 11:07:32;;;;;;;1999.90;999.90;;;24.00;99.90;;;;;;4930115;29;20942;-74
2023/06/15 11:10:01;;;;;;;1999.90;999.90;;;24.30;99.90;;;;;;4951708;28;20028;-74
2023/06/15 11:12:37;;;;;;;1999.90;999.90;;;24.60;99.90;;;;;;4931452;29;20106;-74
2023/06/15 11:15:14;;;;;;;1999.90;999.90;;;24.30;99.90;;;;;;4933983;28;20054;-77
2023/06/15 11:18:04;;;;;;;1999.90;999.90;;;24.40;99.90;;;;;;4929611;28;20066;-78
2023/06/15 11:20:43;;;;;;;1999.90;999.90;;;24.60;99.90;;;;;;4934836;28;20130;-74
2023/06/15 11:23:12;;;;;;;1999.90;999.90;;;24.90;99.90;;;;;;4927351;28;20040;-76
2023/06/15 11:25:41;;;;;;;1999.90;999.90;;;24.40;99.90;;;;;;4952115;28;20460;-73
2023/06/15 11:28:09;;;;;;;1999.90;999.90;;;23.90;99.90;;;;;;4950872;28;20034;-78
2023/06/15 11:30:37;;;;;;;1999.90;999.90;;;24.90;99.90;;;;;;4928007;28;20119;-78
2023/06/15 11:33:03;;;;;;;1999.90;999.90;;;25.50;99.90;;;;;;4950458;28;20058;-74
2023/06/15 11:35:39;;;;;;;1999.90;999.90;;;25.30;99.90;;;;;;4933094;28;20034;-74
2023/06/15 11:38:08;;;;;;;1999.90;999.90;;;24.90;99.90;;;;;;4944691;28;20031;-74
2023/06/15 11:40:55;;;;;;;1999.90;999.90;;;25.00;99.90;;;;;;4949810;28;20130;-75
2023/06/15 11:43:30;;;;;;;1999.90;999.90;;;25.10;99.90;;;;;;4934762;28;20485;-78
2023/06/15 11:45:55;;;;;;;1999.90;999.90;;;24.60;99.90;;;;;;4930090;29;20045;-72
2023/06/15 11:48:21;;;;;;;1999.90;999.90;;;25.60;99.90;;;;;;4949390;28;20051;-72
2023/06/15 11:50:47;;;;;;;1999.90;999.90;;;25.80;99.90;;;;;;4949817;28;20035;-71
2023/06/15 11:53:16;;;;;;;1999.90;999.90;;;25.60;99.90;;;;;;4951280;28;20051;-79
2023/06/15 11:55:48;;;;;;;1999.90;999.90;;;26.00;99.90;;;;;;4950974;28;20976;-78
2023/06/15 11:58:13;;;;;;;1999.90;999.90;;;26.00;99.90;;;;;;4949203;28;20027;-73
2023/06/15 12:00:40;;;;;;;1999.90;999.90;;;25.10;99.90;;;;;;4956303;28;20042;-72
2023/06/15 12:03:11;;;;;;;1999.90;999.90;;;26.00;99.90;;;;;;4948450;28;20035;-72
2023/06/15 12:05:41;;;;;;;1999.90;999.90;;;25.20;99.90;;;;;;4952616;28;20166;-71
2023/06/15 12:08:07;;;;;;;1999.90;999.90;;;24.70;99.90;;;;;;4954211;28;20039;-78
2023/06/15 12:10:35;;;;;;;1999.90;999.90;;;25.30;99.90;;;;;;4949806;28;20074;-73
2023/06/15 12:13:00;;;;;;;1999.90;999.90;;;25.20;99.90;;;;;;4954369;28;20042;-73
2023/06/15 12:15:27;;;;;;;1999.90;999.90;;;25.20;99.90;;;;;;4954396;28;20027;-73
2023/06/15 12:17:55;;;;;;;1999.90;999.90;;;25.20;99.90;;;;;;4955100;28;20405;-72
2023/06/15 12:20:26;;;;;;;1999.90;999.90;;;25.10;99.90;;;;;;4951976;28;20450;-72
2023/06/15 12:22:51;;;;;;;1999.90;999.90;;;24.80;99.90;;;;;;4954004;28;20074;-78
2023/06/15 12:25:17;;;;;;;1999.90;999.90;;;24.80;99.90;;;;;;4957165;28;20466;-73
2023/06/15 12:27:49;;;;;;;1999.90;999.90;;;25.10;99.90;;;;;;4960513;28;20051;-72
2023/06/15 12:30:17;;;;;;;1999.90;999.90;;;25.00;99.90;;;;;;4931903;28;20493;-73
2023/06/15 12:32:47;;;;;;;1999.90;999.90;;;24.50;99.90;;;;;;4949837;28;20031;-73
2023/06/15 12:35:31;;;;;;;1999.90;999.90;;;24.60;99.90;;;;;;4954382;28;20063;-77
2023/06/15 12:37:57;;;;;;;1999.90;999.90;;;24.00;99.90;;;;;;4955476;28;20517;-74
2023/06/15 12:40:23;;;;;;;1999.90;999.90;;;24.70;99.90;;;;;;4956277;28;20038;-73
2023/06/15 12:43:03;;;;;;;1999.90;999.90;;;25.40;99.90;;;;;;4955193;28;20053;-73
2023/06/15 12:45:29;;;;;;;1999.90;999.90;;;26.00;99.90;;;;;;4950498;28;20035;-77
2023/06/15 12:47:56;;;;;;;1999.90;999.90;;;25.40;99.90;;;;;;4952091;28;20059;-77
2023/06/15 12:50:21;;;;;;;1999.90;999.90;;;25.30;99.90;;;;;;4956401;28;20037;-72
2023/06/15 12:52:47;;;;;;;1999.90;999.90;;;24.90;99.90;;;;;;4952727;28;20039;-73
2023/06/15 12:55:13;;;;;;;1999.90;999.90;;;24.70;99.90;;;;;;4953760;28;20346;-72
2023/06/15 12:57:38;;;;;;;1999.90;999.90;;;25.00;99.90;;;;;;4955103;28;20031;-72
2023/06/15 13:00:07;;;;;;;1999.90;999.90;;;24.80;99.90;;;;;;4955530;28;20510;-75
2023/06/15 13:02:33;;;;;;;1999.90;999.90;;;24.20;99.90;;;;;;4952819;28;20061;-73
2023/06/15 13:05:03;;;;;;;1999.90;999.90;;;25.00;99.90;;;;;;4954642;28;20031;-73
2023/06/15 13:07:31;;;;;;;1999.90;999.90;;;25.00;99.90;;;;;;4955341;28;20150;-74
2023/06/15 13:09:57;;;;;;;1999.90;999.90;;;24.10;99.90;;;;;;4945141;28;20018;-73
2023/06/15 13:12:23;;;;;;;1999.90;999.90;;;23.90;99.90;;;;;;4960279;28;20081;-77
2023/06/15 13:14:49;;;;;;;1999.90;999.90;;;24.40;99.90;;;;;;4968253;28;20046;-72
2023/06/15 13:17:14;;;;;;;1999.90;999.90;;;25.60;99.90;;;;;;4951425;28;20111;-74
2023/06/15 13:19:40;;;;;;;1999.90;999.90;;;25.40;99.90;;;;;;4959438;28;20035;-73
2023/06/15 13:22:06;;;;;;;1999.90;999.90;;;24.90;99.90;;;;;;4962823;28;20070;-72
2023/06/15 13:24:31;;;;;;;1999.90;999.90;;;25.00;99.90;;;;;;4934229;28;20442;-73
2023/06/15 13:26:58;;;;;;;1999.90;999.90;;;25.40;99.90;;;;;;4952148;28;20114;-78
2023/06/15 13:29:23;;;;;;;1999.90;999.90;;;25.10;99.90;;;;;;4957635;28;20027;-72
2023/06/15 13:31:50;;;;;;;1999.90;999.90;;;25.30;99.90;;;;;;4950758;28;20420;-73
2023/06/15 13:34:15;;;;;;;1999.90;999.90;;;25.60;99.90;;;;;;4952968;28;20027;-74
2023/06/15 13:36:41;;;;;;;1999.90;999.90;;;25.30;99.90;;;;;;4953094;28;20078;-72
2023/06/15 13:39:07;;;;;;;1999.90;999.90;;;25.20;99.90;;;;;;4954458;28;20035;-75
2023/06/15 13:41:32;;;;;;;1999.90;999.90;;;24.60;99.90;;;;;;4950132;28;20031;-72
2023/06/15 13:43:59;;;;;;;1999.90;999.90;;;25.20;99.90;;;;;;4952279;28;20027;-73
2023/06/15 13:46:25;;;;;;;1999.90;999.90;;;25.60;99.90;;;;;;4953323;28;20023;-73
2023/06/15 13:48:51;;;;;;;1999.90;999.90;;;25.50;99.90;;;;;;4955103;28;20165;-72
2023/06/15 13:51:17;;;;;;;1999.90;999.90;;;26.00;99.90;;;;;;4967856;28;20098;-73
2023/06/15 13:53:42;;;;;;;1999.90;999.90;;;25.30;99.90;;;;;;4954028;28;20069;-77
2023/06/15 13:56:08;;;;;;;1999.90;999.90;;;25.20;99.90;;;;;;4956955;28;20035;-73
2023/06/15 13:58:33;;;;;;;1999.90;999.90;;;25.70;99.90;;;;;;4955738;28;20114;-73
2023/06/15 14:00:59;;;;;;;1999.90;999.90;;;25.70;99.90;;;;;;4956362;28;20494;-74
2023/06/15 14:03:25;;;;;;;1999.90;999.90;;;25.80;99.90;;;;;;4948954;28;20031;-72
2023/06/15 14:05:50;;;;;;;1999.90;999.90;;;25.90;99.90;;;;;;4952710;28;20169;-78
2023/06/15 14:08:16;;;;;;;1999.90;999.90;;;25.80;99.90;;;;;;4946870;28;20035;-74
2023/06/15 14:10:42;;;;;;;1999.90;999.90;;;25.60;99.90;;;;;;4953137;28;20560;-73
2023/06/15 14:13:08;;;;;;;1999.90;999.90;;;24.80;99.90;;;;;;4954846;28;20050;-73
2023/06/15 14:15:33;;;;;;;1999.90;999.90;;;25.00;99.90;;;;;;4950709;28;20490;-72
2023/06/15 14:17:59;;;;;;;1999.90;999.90;;;25.40;99.90;;;;;;4951807;28;20394;-77
2023/06/15 14:20:24;;;;;;;1999.90;999.90;;;25.60;99.90;;;;;;4952837;28;20062;-78
2023/06/15 14:22:50;;;;;;;1999.90;999.90;;;26.10;99.90;;;;;;4951613;28;20599;-73
2023/06/15 14:25:17;;;;;;;1999.90;999.90;;;25.90;99.90;;;;;;4960358;28;20035;-72
2023/06/15 14:27:47;;;;;;;1999.90;999.90;;;25.30;99.90;;;;;;4952737;28;20034;-71
2023/06/15 14:30:14;;;;;;;1999.90;999.90;;;25.00;99.90;;;;;;4945785;28;20162;-77
2023/06/15 14:32:40;;;;;;;1999.90;999.90;;;25.00;99.90;;;;;;4952907;28;20038;-82
2023/06/15 14:35:07;;;;;;;1999.90;999.90;;;25.10;99.90;;;;;;4959782;28;20023;-72
2023/06/15 14:37:32;;;;;;;1999.90;999.90;;;25.20;99.90;;;;;;4952815;28;20073;-71
2023/06/15 14:39:58;;;;;;;1999.90;999.90;;;25.60;99.90;;;;;;4935552;28;20043;-72
2023/06/15 14:42:28;;;;;;;1999.90;999.90;;;26.30;99.90;;;;;;4951123;29;20038;-77
2023/06/15 14:44:54;;;;;;;1999.90;999.90;;;26.30;99.90;;;;;;4952059;28;20469;-78
2023/06/15 14:47:20;;;;;;;1999.90;999.90;;;26.00;99.90;;;;;;4953945;28;20171;-72
2023/06/15 14:49:45;;;;;;;1999.90;999.90;;;26.90;99.90;;;;;;4950711;28;20113;-72
2023/06/15 14:52:11;;;;;;;1999.90;999.90;;;25.90;99.90;;;;;;4936782;29;20030;-73
2023/06/15 14:54:41;;;;;;;1999.90;999.90;;;25.10;99.90;;;;;;4951899;28;20083;-73
2023/06/15 14:57:18;;;;;;;1999.90;999.90;;;25.30;99.90;;;;;;4951741;28;20110;-75
2023/06/15 14:59:44;;;;;;;1999.90;999.90;;;24.80;99.90;;;;;;4946196;28;20034;-74
2023/06/15 15:02:11;;;;;;;1999.90;999.90;;;24.90;99.90;;;;;;4953313;28;20042;-72
2023/06/15 15:04:36;;;;;;;1999.90;999.90;;;25.50;99.90;;;;;;4934292;29;20514;-72
2023/06/15 15:07:02;;;;;;;1999.90;999.90;;;25.50;99.90;;;;;;4930424;28;20040;-74
2023/06/15 15:09:28;;;;;;;1999.90;999.90;;;25.30;99.90;;;;;;4953179;28;20031;-79
2023/06/15 15:11:54;;;;;;;1999.90;999.90;;;24.70;99.90;;;;;;4934786;29;20552;-78
2023/06/15 15:14:19;;;;;;;1999.90;999.90;;;24.60;99.90;;;;;;4958017;28;20026;-73
2023/06/15 15:16:45;;;;;;;1999.90;999.90;;;24.40;99.90;;;;;;4952286;28;20027;-73
2023/06/15 15:19:11;;;;;;;1999.90;999.90;;;24.00;99.90;;;;;;4957964;28;20398;-74
2023/06/15 15:21:36;;;;;;;1999.90;999.90;;;24.30;99.90;;;;;;4954569;28;20094;-77
2023/06/15 15:24:02;;;;;;;1999.90;999.90;;;24.10;99.90;;;;;;4953352;28;20058;-75
2023/06/15 15:26:28;;;;;;;1999.90;999.90;;;24.00;99.90;;;;;;4954940;28;20031;-71
2023/06/15 15:28:54;;;;;;;1999.90;999.90;;;24.00;99.90;;;;;;4952856;29;20379;-71
2023/06/15 15:31:19;;;;;;;1999.90;999.90;;;23.40;99.90;;;;;;4952478;28;20069;-71
2023/06/15 15:33:45;;;;;;;1999.90;999.90;;;23.00;99.90;;;;;;4951497;29;20023;-71
2023/06/15 15:36:11;;;;;;;1999.90;999.90;;;22.70;99.90;;;;;;4955478;28;20086;-75
2023/06/15 15:38:36;;;;;;;1999.90;999.90;;;22.60;99.90;;;;;;4953170;29;20038;-70
2023/06/15 15:41:02;;;;;;;1999.90;999.90;;;22.60;99.90;;;;;;4952541;28;20097;-70
2023/06/15 15:43:28;;;;;;;1999.90;999.90;;;22.90;99.90;;;;;;4952161;29;20057;-71
2023/06/15 15:45:53;;;;;;;1999.90;999.90;;;23.20;99.90;;;;;;4952428;28;20101;-70
2023/06/15 15:48:19;;;;;;;1999.90;999.90;;;22.80;99.90;;;;;;4953678;29;20071;-78
2023/06/15 15:50:46;;;;;;;1999.90;999.90;;;22.80;99.90;;;;;;4955341;28;20684;-78
2023/06/15 15:53:11;;;;;;;1999.90;999.90;;;23.40;99.90;;;;;;4955538;28;20464;-70
2023/06/15 15:55:37;;;;;;;1999.90;999.90;;;22.90;99.90;;;;;;4952982;28;20038;-70
2023/06/15 15:58:03;;;;;;;1999.90;999.90;;;22.40;99.90;;;;;;4952253;29;20027;-72
2023/06/15 16:00:29;;;;;;;1999.90;999.90;;;22.20;99.90;;;;;;4957720;28;20027;-73
2023/06/15 16:02:54;;;;;;;1999.90;999.90;;;22.20;99.90;;;;;;4947955;28;20553;-77
2023/06/15 16:05:20;;;;;;;1999.90;999.90;;;22.40;99.90;;;;;;4952768;28;20520;-72
2023/06/15 16:07:46;;;;;;;1999.90;999.90;;;22.30;99.90;;;;;;4955620;28;20039;-71
2023/06/15 16:10:11;;;;;;;1999.90;999.90;;;22.00;99.90;;;;;;4958623;28;20070;-71
2023/06/15 16:12:38;;;;;;;1999.90;999.90;;;21.70;99.90;;;;;;4956650;28;20031;-71
2023/06/15 16:15:05;;;;;;;1999.90;999.90;;;21.80;99.90;;;;;;4954957;28;20023;-77
2023/06/15 16:17:31;;;;;;;1999.90;999.90;;;21.90;99.90;;;;;;4956631;29;20074;-70
2023/06/15 16:19:57;;;;;;;1999.90;999.90;;;21.80;99.90;;;;;;4953731;28;20043;-70
2023/06/15 16:22:24;;;;;;;1999.90;999.90;;;21.50;99.90;;;;;;4935971;29;20031;-70
2023/06/15 16:24:50;;;;;;;1999.90;999.90;;;21.60;99.90;;;;;;4957369;29;20050;-71
2023/06/15 16:27:16;;;;;;;1999.90;999.90;;;21.60;99.90;;;;;;4958861;29;20070;-70
2023/06/15 16:29:41;;;;;;;1999.90;999.90;;;21.50;99.90;;;;;;4957995;29;20035;-78
2023/06/15 16:32:07;;;;;;;1999.90;999.90;;;21.40;99.90;;;;;;4958052;29;20050;-70
2023/06/15 16:34:33;;;;;;;1999.90;999.90;;;21.40;99.90;;;;;;4956934;29;20035;-71
2023/06/15 16:36:59;;;;;;;1999.90;999.90;;;21.50;99.90;;;;;;4940352;29;20146;-70
2023/06/15 16:39:48;;;;;;;1999.90;999.90;;;21.30;99.90;;;;;;4958181;29;20451;-79
2023/06/15 16:42:16;;;;;;;1999.90;999.90;;;21.70;99.90;;;;;;4958686;29;20019;-78
2023/06/15 16:44:42;;;;;;;1999.90;999.90;;;21.80;99.90;;;;;;4958145;29;20035;-70
2023/06/15 16:47:08;;;;;;;1999.90;999.90;;;22.00;99.90;;;;;;4957338;29;20054;-71
2023/06/15 16:49:38;;;;;;;1999.90;999.90;;;21.90;99.90;;;;;;4957312;29;20023;-69
2023/06/15 16:52:09;;;;;;;1999.90;999.90;;;21.80;99.90;;;;;;4957244;29;20038;-70
2023/06/15 16:54:35;;;;;;;1999.90;999.90;;;21.90;99.90;;;;;;4958100;29;20063;-70
2023/06/15 16:57:02;;;;;;;1999.90;999.90;;;21.60;99.90;;;;;;4958113;29;20023;-78
2023/06/15 16:59:27;;;;;;;1999.90;999.90;;;21.50;99.90;;;;;;4956968;29;20028;-70
2023/06/15 17:01:53;;;;;;;1999.90;999.90;;;21.70;99.90;;;;;;4956862;29;20032;-70
2023/06/15 17:04:19;;;;;;;1999.90;999.90;;;21.70;99.90;;;;;;4939774;29;20400;-70
2023/06/15 17:06:44;;;;;;;1999.90;999.90;;;21.70;99.90;;;;;;4958441;29;20027;-77
2023/06/15 17:09:10;;;;;;;1999.90;999.90;;;21.50;99.90;;;;;;4958058;29;20037;-71
2023/06/15 17:11:36;;;;;;;1999.90;999.90;;;21.50;99.90;;;;;;4955834;29;20058;-73
2023/06/15 17:14:02;;;;;;;1999.90;999.90;;;21.40;99.90;;;;;;4957049;28;20038;-71
2023/06/15 17:16:27;;;;;;;1999.90;999.90;;;21.30;99.90;;;;;;4976062;28;20073;-71
2023/06/15 17:18:53;;;;;;;1999.90;999.90;;;21.20;99.90;;;;;;4976243;28;20061;-78
2023/06/15 17:21:19;;;;;;;1999.90;999.90;;;21.30;99.90;;;;;;4958817;28;20023;-79
2023/06/15 17:23:44;;;;;;;1999.90;999.90;;;21.70;99.90;;;;;;4956842;29;20038;-70
2023/06/15 17:26:10;;;;;;;1999.90;999.90;;;21.60;99.90;;;;;;4956499;29;20031;-70
2023/06/15 17:28:35;;;;;;;1999.90;999.90;;;21.30;99.90;;;;;;4956737;29;20545;-70
2023/06/15 17:31:01;;;;;;;1999.90;999.90;;;21.30;99.90;;;;;;4956025;29;20031;-70
2023/06/15 17:33:27;;;;;;;1999.90;999.90;;;21.40;99.90;;;;;;4957935;29;20063;-79
2023/06/15 17:35:52;;;;;;;1999.90;999.90;;;21.30;99.90;;;;;;4956662;29;20390;-70
2023/06/15 17:38:18;;;;;;;1999.90;999.90;;;21.30;99.90;;;;;;4956180;29;20066;-70
2023/06/15 17:40:43;;;;;;;1999.90;999.90;;;21.30;99.90;;;;;;4956326;29;20554;-70
2023/06/15 17:43:09;;;;;;;1999.90;999.90;;;21.20;99.90;;;;;;4956051;29;20031;-70
2023/06/15 17:45:35;;;;;;;1999.90;999.90;;;21.00;99.90;;;;;;4957456;29;20111;-78
2023/06/15 17:48:00;;;;;;;1999.90;999.90;;;20.80;99.90;;;;;;4957425;29;20059;-78